createdAt,value
2019-06-08T00:00:31.028Z,100.00
2019-06-08T00:05:35.406Z,100.00
2019-06-08T00:10:40.628Z,100.00
2019-06-08T00:15:46.247Z,100.00
2019-06-08T00:20:51.810Z,100.00
2019-06-08T00:25:58.481Z,100.00
2019-06-08T00:31:06.637Z,100.00
2019-06-08T00:36:16.837Z,100.00
2019-06-08T00:41:23.710Z,100.00
2019-06-08T00:46:28.032Z,100.00
2019-06-08T00:51:32.232Z,100.00
2019-06-08T00:56:36.270Z,100.00
2019-06-08T01:01:40.337Z,100.00
2019-06-08T01:06:44.827Z,100.00
2019-06-08T01:11:48.869Z,100.00
2019-06-08T01:16:53.197Z,99.83
2019-06-08T01:21:57.328Z,100.00
2019-06-08T01:27:01.418Z,98.04
2019-06-08T01:32:06.114Z,92.16
2019-06-08T01:37:10.506Z,88.63
2019-06-08T01:42:14.514Z,84.98
2019-06-08T01:47:18.564Z,85.71
2019-06-08T01:52:22.746Z,84.40
2019-06-08T01:57:29.272Z,85.27
2019-06-08T02:02:34.212Z,87.67
2019-06-08T02:07:38.276Z,85.96
2019-06-08T02:12:42.400Z,84.64
2019-06-08T02:17:50.597Z,84.44
2019-06-08T02:22:55.128Z,83.22
2019-06-08T02:28:03.245Z,80.95
2019-06-08T02:33:08.179Z,80.60
2019-06-08T02:38:12.249Z,76.34
2019-06-08T02:43:16.284Z,73.64
2019-06-08T02:48:20.317Z,71.75
2019-06-08T02:53:25.886Z,72.06
2019-06-08T02:58:33.592Z,71.54
2019-06-08T03:03:39.956Z,72.61
2019-06-08T03:08:47.151Z,72.97
2019-06-08T03:13:53.411Z,71.34
2019-06-08T03:18:57.571Z,72.53
2019-06-08T03:24:01.726Z,75.05
2019-06-08T03:29:05.989Z,72.59
2019-06-08T03:34:10.145Z,74.39
2019-06-08T03:39:14.457Z,75.07
2019-06-08T03:44:18.548Z,75.56
2019-06-08T03:49:40.404Z,74.87
2019-06-08T03:54:28.336Z,75.90
2019-06-08T03:59:32.609Z,74.90
2019-06-08T04:04:37.970Z,75.07
2019-06-08T04:09:43.596Z,74.57
2019-06-08T04:14:47.775Z,73.38
2019-06-08T04:20:09.593Z,73.77
2019-06-08T04:24:57.581Z,73.33
2019-06-08T04:30:01.702Z,72.95
2019-06-08T04:35:06.710Z,72.84
2019-06-08T04:40:10.853Z,71.94
2019-06-08T04:45:17.149Z,72.20
2019-06-08T04:50:23.741Z,70.18
2019-06-08T04:55:27.297Z,70.59
2019-06-08T05:00:31.712Z,69.84
2019-06-08T05:05:35.766Z,66.22
2019-06-08T05:10:41.257Z,55.12
2019-06-08T05:15:47.269Z,42.76
2019-06-08T05:20:51.630Z,38.00
2019-06-08T05:25:55.640Z,35.26
2019-06-08T05:30:59.975Z,32.77
2019-06-08T05:36:04.208Z,32.47
2019-06-08T05:41:08.243Z,31.50
2019-06-08T05:46:12.237Z,31.64
2019-06-08T05:51:16.319Z,29.48
2019-06-08T05:56:20.388Z,29.93
2019-06-08T06:01:24.671Z,30.47
2019-06-08T06:06:28.735Z,36.02
2019-06-08T06:11:32.782Z,41.94
2019-06-08T06:16:36.821Z,46.76
2019-06-08T06:21:41.018Z,48.69
2019-06-08T06:26:45.318Z,48.73
2019-06-08T06:31:51.953Z,41.49
2019-06-08T06:36:57.490Z,35.86
2019-06-08T06:42:01.637Z,38.74
2019-06-08T06:47:06.077Z,37.55
2019-06-08T06:52:10.255Z,42.31
2019-06-08T06:57:14.310Z,42.50
2019-06-08T07:02:18.623Z,46.20
2019-06-08T07:07:22.766Z,47.26
2019-06-08T07:12:26.866Z,47.96
2019-06-08T07:17:30.967Z,47.43
2019-06-08T07:22:35.380Z,44.31
2019-06-08T07:27:39.574Z,37.98
2019-06-08T07:32:43.730Z,43.12
2019-06-08T07:37:48.960Z,47.52
2019-06-08T07:42:56.790Z,49.21
2019-06-08T07:48:01.342Z,51.83
2019-06-08T07:53:05.968Z,51.24
2019-06-08T07:58:10.012Z,50.36
2019-06-08T08:03:14.077Z,49.13
2019-06-08T08:08:18.250Z,48.60
2019-06-08T08:13:23.538Z,50.28
2019-06-08T08:18:28.090Z,50.41
2019-06-08T08:23:32.170Z,51.57
2019-06-08T08:28:37.497Z,51.73
2019-06-08T08:33:41.879Z,51.82
2019-06-08T08:38:47.829Z,51.86
2019-06-08T08:43:53.203Z,51.78
2019-06-08T08:49:05.939Z,52.13
2019-06-08T08:54:05.245Z,53.37
2019-06-08T08:59:10.817Z,53.08
2019-06-08T09:04:14.973Z,53.15
2019-06-08T09:09:21.662Z,52.27
2019-06-08T09:14:24.860Z,51.30
2019-06-08T09:19:28.883Z,51.63
2019-06-08T09:24:32.976Z,50.40
2019-06-08T09:29:38.809Z,49.33
2019-06-08T09:34:43.156Z,49.68
2019-06-08T09:39:48.262Z,49.34
2019-06-08T09:44:53.900Z,48.55
2019-06-08T09:50:01.724Z,50.85
2019-06-08T09:55:06.910Z,48.95
2019-06-08T10:00:18.045Z,48.69
2019-06-08T10:05:18.487Z,41.49
2019-06-08T10:10:22.675Z,41.19
2019-06-08T10:15:27.868Z,42.69
2019-06-08T10:20:31.927Z,46.00
2019-06-08T10:25:38.396Z,46.81
2019-06-08T10:30:41.889Z,46.54
2019-06-08T10:35:47.994Z,43.41
2019-06-08T10:40:51.983Z,42.85
2019-06-08T10:45:57.894Z,37.85
2019-06-08T10:51:03.823Z,37.97
2019-06-08T10:56:11.773Z,36.79
2019-06-08T11:01:13.733Z,36.26
2019-06-08T11:06:18.794Z,37.80
2019-06-08T11:11:23.670Z,35.14
2019-06-08T11:16:28.724Z,33.41
2019-06-08T11:21:33.007Z,33.39
2019-06-08T11:26:40.039Z,32.51
2019-06-08T11:31:42.811Z,31.97
2019-06-08T11:36:48.420Z,31.56
2019-06-08T11:41:52.637Z,30.06
2019-06-08T11:46:57.513Z,32.52
2019-06-08T11:52:02.572Z,31.48
2019-06-08T11:57:09.981Z,29.75
2019-06-08T12:02:14.269Z,30.12
2019-06-08T12:07:18.558Z,31.11
2019-06-08T12:12:23.000Z,28.80
2019-06-08T12:17:27.576Z,29.66
2019-06-08T12:22:31.886Z,29.94
2019-06-08T12:27:40.201Z,29.43
2019-06-08T12:32:44.354Z,29.63
2019-06-08T12:37:51.439Z,28.84
2019-06-08T12:42:54.386Z,30.89
2019-06-08T12:48:05.162Z,28.44
2019-06-08T12:53:16.405Z,28.26
2019-06-08T12:58:22.066Z,27.23
2019-06-08T13:03:27.722Z,27.10
2019-06-08T13:09:04.582Z,28.22
2019-06-08T13:14:31.141Z,25.88
2019-06-08T13:19:35.242Z,27.91
2019-06-08T13:24:39.321Z,28.23
2019-06-08T13:29:43.484Z,29.08
2019-06-08T13:34:50.222Z,28.80
2019-06-08T13:39:53.357Z,27.45
2019-06-08T13:44:57.865Z,27.83
2019-06-08T13:50:02.161Z,26.45
2019-06-08T13:55:06.721Z,27.84
2019-06-08T14:00:13.415Z,28.54
2019-06-08T14:05:26.243Z,27.32
2019-06-08T14:10:38.628Z,26.29
2019-06-08T14:15:42.754Z,26.82
2019-06-08T14:20:48.328Z,26.95
2019-06-08T14:25:56.610Z,27.29
2019-06-08T14:30:59.344Z,27.41
2019-06-08T14:36:03.598Z,27.14
2019-06-08T14:41:07.758Z,27.13
2019-06-08T14:46:11.840Z,27.07
2019-06-08T14:51:16.008Z,26.80
2019-06-08T14:56:21.303Z,26.53
2019-06-08T15:01:26.342Z,26.79
2019-06-08T15:06:34.232Z,26.95
2019-06-08T15:11:38.102Z,28.89
2019-06-08T15:16:42.237Z,27.67
2019-06-08T15:21:48.761Z,27.60
2019-06-08T15:26:52.892Z,28.81
2019-06-08T15:31:58.177Z,30.16
2019-06-08T15:37:02.731Z,28.10
2019-06-08T15:42:08.274Z,28.22
2019-06-08T15:47:12.798Z,28.80
2019-06-08T15:52:17.588Z,29.07
2019-06-08T15:57:22.988Z,28.94
2019-06-08T16:02:27.331Z,28.93
2019-06-08T16:07:32.802Z,28.12
2019-06-08T16:12:38.173Z,29.07
2019-06-08T16:17:42.177Z,28.63
2019-06-08T16:22:46.242Z,28.23
2019-06-08T16:27:50.365Z,28.39
2019-06-08T16:33:07.940Z,28.74
2019-06-08T16:38:14.642Z,28.68
2019-06-08T16:43:18.881Z,28.27
2019-06-08T16:48:22.994Z,29.34
2019-06-08T16:53:27.422Z,29.38
2019-06-08T16:58:32.120Z,31.63
2019-06-08T17:03:36.950Z,30.11
2019-06-08T17:08:42.146Z,30.66
2019-06-08T17:13:46.997Z,29.56
2019-06-08T17:18:51.187Z,29.82
2019-06-08T17:23:55.248Z,30.86
2019-06-08T17:28:59.281Z,29.94
2019-06-08T17:34:03.388Z,31.29
2019-06-08T17:39:07.831Z,31.49
2019-06-08T17:44:12.235Z,32.57
2019-06-08T17:49:16.308Z,33.44
2019-06-08T17:54:20.368Z,31.91
2019-06-08T17:59:24.799Z,32.36
2019-06-08T18:04:29.173Z,31.79
2019-06-08T18:09:33.785Z,32.58
2019-06-08T18:14:40.477Z,32.80
2019-06-08T18:20:01.290Z,34.83
2019-06-08T18:25:07.827Z,33.21
2019-06-08T18:30:19.158Z,36.45
2019-06-08T18:35:23.958Z,36.78
2019-06-08T18:40:28.804Z,35.68
2019-06-08T18:45:33.493Z,37.98
2019-06-08T18:50:40.356Z,37.33
2019-06-08T18:55:45.081Z,36.89
2019-06-08T19:00:51.568Z,39.25
2019-06-08T19:05:56.024Z,41.83
2019-06-08T19:11:00.201Z,41.43
2019-06-08T19:16:04.237Z,41.88
2019-06-08T19:21:08.243Z,41.72
2019-06-08T19:26:12.281Z,43.35
2019-06-08T19:31:17.603Z,44.06
2019-06-08T19:36:21.769Z,44.41
2019-06-08T19:41:28.105Z,45.24
2019-06-08T19:46:31.999Z,46.50
2019-06-08T19:51:38.215Z,47.60
2019-06-08T19:56:41.947Z,47.64
2019-06-08T20:01:52.623Z,47.70
2019-06-08T20:06:51.745Z,48.15
2019-06-08T20:11:59.810Z,49.95
2019-06-08T20:17:01.743Z,49.17
2019-06-08T20:22:07.536Z,50.27
2019-06-08T20:27:17.218Z,50.90
2019-06-08T20:32:23.640Z,51.21
2019-06-08T20:37:28.401Z,53.30
2019-06-08T20:42:32.982Z,55.38
2019-06-08T20:47:39.110Z,55.78
2019-06-08T20:52:43.031Z,56.01
2019-06-08T20:57:48.162Z,56.99
2019-06-08T21:02:53.580Z,58.22
2019-06-08T21:07:59.262Z,59.43
2019-06-08T21:13:03.615Z,60.90
2019-06-08T21:18:07.971Z,62.79
2019-06-08T21:23:12.175Z,62.70
2019-06-08T21:28:17.169Z,61.64
2019-06-08T21:33:21.457Z,62.65
2019-06-08T21:38:28.037Z,63.67
2019-06-08T21:43:31.218Z,64.25
2019-06-08T21:48:35.370Z,64.15
2019-06-08T21:53:39.420Z,65.30
2019-06-08T21:58:43.457Z,64.28
2019-06-08T22:03:47.570Z,63.14
2019-06-08T22:08:51.959Z,63.14
2019-06-08T22:13:59.223Z,63.33
2019-06-08T22:19:03.253Z,64.78
2019-06-08T22:24:08.061Z,65.62
2019-06-08T22:29:12.591Z,66.55
2019-06-08T22:34:17.508Z,67.74
2019-06-08T22:39:21.663Z,69.13
2019-06-08T22:44:28.254Z,69.69
2019-06-08T22:49:31.484Z,71.49
2019-06-08T22:54:35.553Z,71.87
2019-06-08T22:59:39.614Z,71.92
2019-06-08T23:04:43.623Z,72.58
2019-06-08T23:09:47.930Z,73.86
2019-06-08T23:14:52.428Z,74.63
2019-06-08T23:19:57.791Z,75.65
2019-06-08T23:25:03.303Z,76.44
2019-06-08T23:30:10.107Z,76.98
2019-06-08T23:35:14.825Z,77.67
2019-06-08T23:40:18.888Z,77.65
2019-06-08T23:45:23.277Z,78.75
2019-06-08T23:50:27.360Z,79.76
2019-06-08T23:55:31.397Z,80.60
